createdAt,value
2018-12-09T00:03:35.997Z,71.90
2018-12-09T00:08:39.623Z,72.30
2018-12-09T00:13:43.309Z,72.70
2018-12-09T00:18:46.524Z,73.00
2018-12-09T00:23:49.952Z,82.80
2018-12-09T00:28:53.265Z,91.10
2018-12-09T00:33:58.254Z,93.40
2018-12-09T00:39:03.817Z,94.30
2018-12-09T00:44:08.123Z,94.50
2018-12-09T00:49:12.084Z,93.20
2018-12-09T00:54:15.678Z,93.30
2018-12-09T00:59:19.116Z,93.00
2018-12-09T01:04:24.174Z,92.50
2018-12-09T01:09:28.383Z,92.70
2018-12-09T01:14:34.434Z,92.10
2018-12-09T01:19:39.234Z,91.40
2018-12-09T01:24:42.979Z,91.60
2018-12-09T01:29:46.461Z,92.10
2018-12-09T01:34:49.899Z,92.30
2018-12-09T01:39:53.408Z,92.20
2018-12-09T01:44:56.523Z,91.40
2018-12-09T01:49:59.716Z,91.20
2018-12-09T01:55:02.949Z,90.40
2018-12-09T02:00:06.127Z,87.00
2018-12-09T02:05:09.279Z,84.30
2018-12-09T02:10:12.960Z,82.00
2018-12-09T02:15:16.092Z,80.10
2018-12-09T02:20:19.248Z,81.00
2018-12-09T02:25:22.555Z,78.90
2018-12-09T02:30:26.907Z,78.70
2018-12-09T02:35:34.851Z,77.20
2018-12-09T02:40:38.740Z,78.70
2018-12-09T02:45:42.439Z,75.80
2018-12-09T02:50:47.528Z,73.90
2018-12-09T02:55:52.360Z,74.40
2018-12-09T03:00:59.747Z,72.60
2018-12-09T03:06:04.430Z,72.40
2018-12-09T03:11:10.338Z,71.90
2018-12-09T03:16:17.798Z,72.80
2018-12-09T03:21:24.487Z,73.00
2018-12-09T03:26:30.416Z,72.60
2018-12-09T03:31:40.099Z,72.60
2018-12-09T03:36:44.566Z,74.70
2018-12-09T03:41:47.875Z,75.40
2018-12-09T03:46:51.019Z,74.90
2018-12-09T03:51:54.218Z,73.90
2018-12-09T03:57:02.184Z,73.90
2018-12-09T04:02:06.474Z,73.20
2018-12-09T04:07:14.652Z,72.70
2018-12-09T04:12:17.776Z,71.30
2018-12-09T04:17:21.472Z,70.50
2018-12-09T04:22:24.802Z,74.20
2018-12-09T04:27:28.832Z,76.30
2018-12-09T04:32:32.255Z,79.20
2018-12-09T04:37:36.782Z,83.90
2018-12-09T04:42:40.391Z,82.90
2018-12-09T04:47:43.914Z,81.00
2018-12-09T04:52:48.399Z,83.10
2018-12-09T04:57:53.574Z,80.10
2018-12-09T05:02:57.582Z,79.70
2018-12-09T05:08:01.037Z,80.70
2018-12-09T05:13:04.216Z,81.60
2018-12-09T05:18:07.349Z,83.90
2018-12-09T05:23:10.470Z,86.60
2018-12-09T05:28:13.627Z,86.20
2018-12-09T05:33:16.745Z,83.60
2018-12-09T05:38:19.889Z,83.00
2018-12-09T05:43:23.020Z,82.40
2018-12-09T05:48:26.159Z,82.80
2018-12-09T05:53:29.295Z,83.40
2018-12-09T05:58:32.437Z,84.20
2018-12-09T06:03:35.501Z,86.10
2018-12-09T06:08:38.629Z,88.00
2018-12-09T06:13:41.813Z,88.20
2018-12-09T06:18:45.065Z,87.30
2018-12-09T06:23:48.272Z,89.40
2018-12-09T06:28:51.340Z,87.90
2018-12-09T06:33:54.523Z,87.70
2018-12-09T06:38:57.640Z,88.10
2018-12-09T06:44:01.219Z,86.70
2018-12-09T06:49:04.564Z,87.50
2018-12-09T06:54:08.156Z,88.10
2018-12-09T06:59:11.293Z,88.70
2018-12-09T07:04:14.348Z,89.10
2018-12-09T07:09:17.476Z,90.00
2018-12-09T07:14:20.613Z,90.50
2018-12-09T07:19:23.761Z,89.60
2018-12-09T07:24:26.904Z,90.00
2018-12-09T07:29:30.055Z,90.10
2018-12-09T07:34:33.300Z,85.70
2018-12-09T07:39:36.335Z,84.10
2018-12-09T07:44:39.467Z,82.80
2018-12-09T07:49:43.336Z,81.30
2018-12-09T07:54:48.308Z,79.00
2018-12-09T07:59:51.919Z,80.30
2018-12-09T08:04:55.028Z,78.60
2018-12-09T08:15:13.188Z,76.40
2018-12-09T08:20:16.332Z,76.40
2018-12-09T08:25:19.524Z,74.70
2018-12-09T08:30:22.673Z,71.50
2018-12-09T08:35:25.806Z,75.20
2018-12-09T08:40:28.975Z,74.40
2018-12-09T08:45:32.151Z,74.20
2018-12-09T08:50:35.315Z,72.80
2018-12-09T08:55:38.427Z,72.20
2018-12-09T09:00:41.724Z,72.40
2018-12-09T09:05:44.881Z,72.90
2018-12-09T09:10:48.031Z,73.00
2018-12-09T09:15:51.148Z,73.50
2018-12-09T09:20:54.293Z,71.20
2018-12-09T09:25:57.560Z,70.20
2018-12-09T09:31:00.658Z,71.10
2018-12-09T09:36:03.814Z,71.30
2018-12-09T09:41:07.067Z,70.00
2018-12-09T09:46:10.187Z,68.30
2018-12-09T09:51:13.366Z,68.20
2018-12-09T09:56:16.594Z,64.90
2018-12-09T10:01:19.758Z,63.70
2018-12-09T10:06:23.588Z,65.40
2018-12-09T10:11:26.711Z,63.50
2018-12-09T10:16:30.960Z,59.40
2018-12-09T10:21:34.087Z,55.50
2018-12-09T10:26:37.237Z,60.90
2018-12-09T10:31:40.388Z,67.30
2018-12-09T10:36:43.606Z,66.50
2018-12-09T10:41:53.663Z,65.00
2018-12-09T10:46:56.843Z,63.70
2018-12-09T10:52:00.013Z,64.40
2018-12-09T10:57:03.262Z,65.00
2018-12-09T11:02:12.762Z,62.60
2018-12-09T11:07:15.916Z,62.20
2018-12-09T11:12:19.023Z,61.40
2018-12-09T11:17:22.205Z,61.50
2018-12-09T11:22:25.352Z,58.30
2018-12-09T11:27:28.523Z,54.90
2018-12-09T11:32:31.703Z,54.90
2018-12-09T11:37:34.863Z,51.30
2018-12-09T11:42:38.024Z,49.20
2018-12-09T11:47:41.251Z,48.20
2018-12-09T11:52:44.427Z,44.90
2018-12-09T11:57:47.675Z,47.30
2018-12-09T12:02:50.815Z,52.40
2018-12-09T12:07:53.924Z,53.20
2018-12-09T12:12:57.087Z,55.00
2018-12-09T12:18:00.296Z,56.70
2018-12-09T12:23:03.502Z,56.30
2018-12-09T12:28:06.660Z,59.20
2018-12-09T12:33:09.795Z,60.90
2018-12-09T12:38:12.992Z,63.00
2018-12-09T12:43:16.135Z,65.50
2018-12-09T12:48:20.090Z,66.30
2018-12-09T12:53:23.260Z,65.50
2018-12-09T12:58:26.514Z,69.30
2018-12-09T13:03:29.709Z,70.40
2018-12-09T13:08:33.389Z,72.30
2018-12-09T13:13:36.526Z,72.20
2018-12-09T13:18:39.724Z,74.50
2018-12-09T13:23:42.868Z,73.60
2018-12-09T13:28:50.051Z,74.00
2018-12-09T13:33:53.284Z,72.30
2018-12-09T13:38:56.872Z,72.90
2018-12-09T13:44:00.132Z,73.00
2018-12-09T13:49:03.382Z,71.50
2018-12-09T13:54:06.556Z,71.10
2018-12-09T13:59:09.681Z,69.50
2018-12-09T14:04:12.863Z,73.00
2018-12-09T14:09:16.092Z,78.30
2018-12-09T14:14:19.173Z,81.40
2018-12-09T14:19:22.432Z,82.50
2018-12-09T14:24:25.684Z,83.00
2018-12-09T14:29:28.983Z,82.10
2018-12-09T14:34:32.111Z,83.00
2018-12-09T14:39:35.248Z,83.50
2018-12-09T14:44:38.875Z,82.80
2018-12-09T14:49:42.334Z,83.00
2018-12-09T14:54:45.468Z,83.00
2018-12-09T14:59:48.624Z,82.70
2018-12-09T15:04:51.702Z,82.30
2018-12-09T15:09:55.210Z,81.60
2018-12-09T15:14:58.297Z,80.40
2018-12-09T15:20:01.580Z,78.80
2018-12-09T15:25:06.404Z,78.40
2018-12-09T15:30:09.786Z,78.60
2018-12-09T15:35:12.969Z,77.80
2018-12-09T15:40:16.128Z,78.30
2018-12-09T15:45:19.293Z,78.60
2018-12-09T15:50:22.421Z,80.00
2018-12-09T15:55:25.515Z,80.60
2018-12-09T16:00:35.897Z,79.80
2018-12-09T16:05:39.089Z,81.10
2018-12-09T16:10:42.266Z,82.70
2018-12-09T16:15:45.420Z,81.50
2018-12-09T16:20:48.562Z,81.10
2018-12-09T16:25:51.610Z,81.60
2018-12-09T16:30:54.731Z,80.50
2018-12-09T16:35:57.908Z,79.40
2018-12-09T16:41:01.137Z,79.70
2018-12-09T16:46:04.327Z,79.40
2018-12-09T16:51:07.497Z,79.20
2018-12-09T16:56:10.563Z,78.70
2018-12-09T17:01:13.819Z,78.50
2018-12-09T17:06:16.879Z,78.70
2018-12-09T17:11:20.028Z,77.80
2018-12-09T17:16:23.364Z,77.10
2018-12-09T17:21:26.561Z,76.20
2018-12-09T17:26:31.937Z,76.20
2018-12-09T17:31:35.148Z,76.20
2018-12-09T17:36:38.290Z,77.00
2018-12-09T17:41:41.458Z,75.90
2018-12-09T17:46:44.556Z,76.00
2018-12-09T17:51:47.735Z,76.50
2018-12-09T17:56:50.870Z,76.10
2018-12-09T18:01:54.093Z,76.00
2018-12-09T18:06:57.549Z,75.90
2018-12-09T18:12:00.734Z,75.10
2018-12-09T18:17:04.078Z,76.10
2018-12-09T18:22:07.384Z,77.40
2018-12-09T18:27:10.659Z,81.30
2018-12-09T18:32:13.777Z,80.90
2018-12-09T18:37:16.975Z,79.30
2018-12-09T18:42:20.195Z,79.80
2018-12-09T18:47:23.395Z,78.10
2018-12-09T18:52:26.504Z,77.50
2018-12-09T18:57:29.562Z,76.20
2018-12-09T19:02:32.857Z,77.00
2018-12-09T19:07:36.024Z,77.30
2018-12-09T19:12:39.348Z,76.40
2018-12-09T19:17:42.542Z,77.10
2018-12-09T19:22:45.750Z,76.90
2018-12-09T19:27:48.931Z,81.00
2018-12-09T19:32:52.092Z,80.40
2018-12-09T19:37:55.305Z,80.20
2018-12-09T19:42:58.641Z,79.50
2018-12-09T19:48:01.816Z,81.60
2018-12-09T19:53:05.024Z,82.00
2018-12-09T19:58:08.440Z,81.20
2018-12-09T20:03:11.873Z,82.70
2018-12-09T20:08:15.048Z,83.70
2018-12-09T20:13:18.228Z,87.00
2018-12-09T20:18:21.409Z,88.80
2018-12-09T20:23:24.543Z,89.00
2018-12-09T20:28:27.828Z,90.00
2018-12-09T20:33:31.035Z,89.00
2018-12-09T20:38:34.416Z,87.20
2018-12-09T20:43:37.674Z,84.50
2018-12-09T20:48:40.892Z,83.80
2018-12-09T20:53:44.095Z,83.30
2018-12-09T20:58:47.327Z,85.50
2018-12-09T21:03:50.471Z,87.80
2018-12-09T21:08:55.343Z,90.00
2018-12-09T21:13:58.636Z,90.60
2018-12-09T21:19:01.841Z,90.60
2018-12-09T21:24:05.023Z,90.60
2018-12-09T21:29:08.108Z,89.90
2018-12-09T21:34:11.215Z,90.60
2018-12-09T21:39:14.295Z,91.00
2018-12-09T21:44:17.379Z,91.50
2018-12-09T21:49:20.551Z,90.30
2018-12-09T21:54:23.736Z,89.20
2018-12-09T21:59:27.038Z,88.70
2018-12-09T22:04:30.463Z,89.00
2018-12-09T22:09:33.618Z,87.50
2018-12-09T22:14:36.767Z,87.20
2018-12-09T22:19:39.892Z,84.20
2018-12-09T22:24:43.134Z,82.20
2018-12-09T22:29:46.793Z,82.10
2018-12-09T22:34:50.119Z,81.40
2018-12-09T22:39:53.327Z,80.40
2018-12-09T22:44:56.812Z,80.70
2018-12-09T22:49:59.948Z,80.10
2018-12-09T22:55:06.307Z,80.50
2018-12-09T23:00:20.287Z,83.80
2018-12-09T23:05:23.413Z,82.90
2018-12-09T23:10:26.529Z,82.60
2018-12-09T23:15:29.633Z,82.10
2018-12-09T23:20:32.779Z,82.40
2018-12-09T23:25:35.909Z,82.30
2018-12-09T23:30:39.093Z,80.80
2018-12-09T23:35:49.985Z,79.60
2018-12-09T23:40:53.103Z,78.60
2018-12-09T23:45:56.192Z,77.20
2018-12-09T23:50:59.241Z,77.00
2018-12-09T23:56:02.371Z,77.30
